Pacific - South Coast: Past 24 Hour Conditions

 

South Hecate Strait - 46185

06:00 PM PDT 23 July 2014Buoy position: 52.43N 129.79W
This table is a summary of hourly weather conditions for the past 24 hours.
Date / Time
(PDT)
Wind(knots) Wave height(m) Wave period(s) Pressure(kPa) Air tempC) Water tempC)
23 July 2014
18:00 NW 14 gust 16 1.0 5.0 101.6 15 14
17:00 NW 16 gust 18 1.1 5.0 101.6 15 14
16:00 NW 14 gust 18 1.0 5.0 101.6 15 14
15:00 NNW 18 gust 19 1.1 5.0 101.6 14 14
14:00 NNW 16 gust 19 1.0 4.0 101.6 14 14
13:00 NNW 16 gust 19 1.0 4.0 101.6 14 14
12:00 NNW 16 gust 19 1.0 4.0 101.6 14 14
11:00 NNW 18 gust 23 1.0 4.0 101.6 14 14
10:00 NNW 18 gust 19 0.8 4.0 101.7 14 14
9:00 NNW 18 gust 19 0.8 4.0 101.7 14 14
8:00 NNW 19 gust 23 0.8 4.0 101.7 14 14
7:00 NNW 18 gust 21 0.7 4.0 101.7 14 14
6:00 NNW 16 gust 19 0.6 14.0 101.8 14 14
5:00 NNW 16 gust 18 0.6 13.0 101.8 14 14
4:00 NNW 14 gust 16 0.5 12.0 101.8 14 14
3:00 NNW 12 gust 14 0.5 13.0 101.9 14 14
2:00 NNW 12 gust 14 0.4 14.0 101.9 14 14
1:00 N 8 gust 10 0.5 14.0 101.9 14 14
0:00 NNW 6 gust 8 0.5 13.0 102.0 14 14
22 July 2014
23:00 N 6 gust 8 0.6 12.0 102.0 14 14
22:00 NNE 4 gust 6 0.7 14.0 102.0 14 14
21:00 NE 2 gust 4 0.7 13.0 102.0 15 14
20:00 NE 2 gust 2 0.7 5.0 102.0 15 14
19:00 calm 0.7 5.0 101.9 15 14
18:00 SE 4 gust 4 0.8 5.0 101.9 15 14
 
Map of Pacific - South Coast marine weather areas Tsawwassen Ferry Terminal South Nomad - 46036 Sentry Shoal - 46131 South Brooks - 46132 Halibut Bank - 46146 South Moresby - 46147 South Hecate Strait - 46185 West Sea Otter - 46204 La Perouse Bank - 46206 East Dellwood - 46207 Discovery Island Esquimalt Harbour Kelp Reefs Malahat Race Rocks Lightstation Saturna Island Sheringham Point University of Victoria Victoria Gonzales Victoria Int'l Airport Ballenas Islands Campbell River Airport Comox Airport Entrance Island Fanny Island Nanaimo Airport Port Hardy Airport Sisters Islets Estevan Point Sartine Island Solander Island Tofino Airport Grief Point Powell River Airport Sechelt Cape St.James Bella Bella Airport Bella Coola Airport Cathedral Point Herbert Island Point Atkinson Sand Heads Lightstation Vancouver Harbour Vancouver Int'l Airport West Vancouver Port Alberni Howe Sound - Pam Rocks Squamish Airport